createdAt,value
2023-05-10T11:17:35.817Z,100997.03
2023-05-10T11:20:12.056Z,100998.22
2023-05-10T11:23:22.539Z,100900.44
2023-05-10T11:29:09.750Z,100988.66
2023-05-10T11:32:19.018Z,100986.63
2023-05-10T11:35:00.674Z,100956.34
2023-05-10T11:37:36.371Z,100945.50
2023-05-10T11:40:26.014Z,100997.22
2023-05-10T11:43:00.512Z,100968.66
2023-05-10T11:46:24.006Z,100814.41
2023-05-10T11:48:59.248Z,100981.72
2023-05-10T11:51:44.195Z,100968.50
2023-05-10T11:54:18.879Z,100983.88
2023-05-10T11:56:55.400Z,100991.47
2023-05-10T11:59:28.227Z,100982.06
2023-05-10T12:02:13.469Z,100952.56
2023-05-10T12:04:59.311Z,100762.69
2023-05-10T12:07:38.208Z,100983.75
2023-05-10T12:10:30.576Z,100979.13
2023-05-10T12:13:03.658Z,100975.19
2023-05-10T12:15:41.026Z,100932.13
2023-05-10T12:18:30.909Z,100821.88
2023-05-10T12:21:09.259Z,100947.53
2023-05-10T12:24:12.145Z,100958.78
2023-05-10T12:26:43.829Z,100968.09
2023-05-10T12:29:21.990Z,100972.50
2023-05-10T12:32:20.102Z,100971.31
2023-05-10T12:34:51.931Z,100819.53
2023-05-10T12:37:29.918Z,100949.97
2023-05-10T12:41:31.800Z,100799.41
2023-05-10T12:44:26.613Z,100796.53
2023-05-10T12:48:18.983Z,100976.91
2023-05-10T12:50:31.535Z,100917.22
2023-05-10T12:53:03.682Z,100976.81
2023-05-10T12:55:33.093Z,100976.88
2023-05-10T12:58:08.376Z,100987.53
2023-05-10T13:00:39.235Z,100979.56
2023-05-10T13:03:14.016Z,100975.81
2023-05-10T13:05:44.428Z,100962.28
2023-05-10T13:08:15.427Z,100975.84
2023-05-10T13:10:48.197Z,100981.53
2023-05-10T13:13:18.114Z,100993.88
2023-05-10T13:16:04.549Z,100978.66
2023-05-10T13:18:37.410Z,100978.56
2023-05-10T13:21:09.172Z,100970.38
2023-05-10T13:23:38.464Z,100960.31
2023-05-10T13:26:18.694Z,100986.66
2023-05-10T13:29:05.694Z,100938.28
2023-05-10T13:31:35.035Z,100978.47
2023-05-10T13:34:23.972Z,100986.63
2023-05-10T13:36:54.395Z,100994.13
2023-05-10T13:39:24.395Z,100983.47
2023-05-10T13:42:14.914Z,100999.47
2023-05-10T13:44:44.407Z,100946.75
2023-05-10T13:47:50.189Z,100999.72
2023-05-10T13:50:21.333Z,100952.97
2023-05-10T13:52:50.733Z,101002.63
2023-05-10T13:55:22.554Z,101014.00
2023-05-10T13:57:51.757Z,100993.94
2023-05-10T14:00:22.644Z,101003.03
2023-05-10T14:02:52.018Z,101004.13
2023-05-10T14:05:26.662Z,101009.44
2023-05-10T14:08:13.238Z,101004.19
2023-05-10T14:10:42.826Z,101016.25
2023-05-10T14:13:31.717Z,100991.09
2023-05-10T14:16:18.437Z,101020.81
2023-05-10T14:18:48.028Z,101030.81
2023-05-10T14:21:19.067Z,100999.00
2023-05-10T14:23:48.602Z,101033.59
2023-05-10T14:26:34.862Z,100999.34
2023-05-10T14:29:04.264Z,100981.81
2023-05-10T14:31:39.425Z,100987.38
2023-05-10T14:34:09.030Z,101033.22
2023-05-10T14:36:40.935Z,101022.09
2023-05-10T14:39:41.854Z,100981.94
2023-05-10T14:42:11.308Z,101008.44
2023-05-10T14:44:40.968Z,101028.47
2023-05-10T14:47:28.932Z,101033.28
2023-05-10T14:49:59.655Z,101011.03
2023-05-10T14:52:32.865Z,101005.63
2023-05-10T14:55:39.083Z,100983.31
2023-05-10T14:58:25.001Z,101031.91
2023-05-10T15:00:54.414Z,101002.00
2023-05-10T15:03:26.331Z,101017.84
2023-05-10T15:05:57.647Z,100974.72
2023-05-10T15:08:28.309Z,101033.97
2023-05-10T15:11:00.121Z,101028.91
2023-05-10T15:13:30.795Z,101034.44
2023-05-10T15:16:00.526Z,101039.06
2023-05-10T15:18:29.922Z,101033.09
2023-05-10T15:20:59.457Z,101036.88
2023-05-10T15:23:48.927Z,101028.31
2023-05-10T15:26:18.575Z,100970.06
2023-05-10T15:29:05.299Z,101032.25
2023-05-10T15:31:36.351Z,101028.03
2023-05-10T15:34:07.864Z,101023.78
2023-05-10T15:36:54.147Z,101016.56
2023-05-10T15:39:26.111Z,100989.34
2023-05-10T15:41:55.295Z,100962.69
2023-05-10T15:44:25.684Z,101012.19
2023-05-10T15:46:55.412Z,100976.00
2023-05-10T15:49:42.933Z,100962.34
2023-05-10T15:52:13.348Z,100951.22
2023-05-10T15:55:02.307Z,101018.22
2023-05-10T15:57:31.524Z,101003.56
2023-05-10T16:00:01.311Z,100954.31
2023-05-10T16:02:31.104Z,101031.00
2023-05-10T16:05:01.427Z,101021.34
2023-05-10T16:07:31.062Z,100928.75
2023-05-10T16:10:04.548Z,100994.84
2023-05-10T16:12:51.922Z,101020.16
2023-05-10T16:15:22.200Z,100972.63
2023-05-10T16:17:51.865Z,100868.81
2023-05-10T16:20:21.519Z,100984.41
2023-05-10T16:22:50.960Z,100911.47
2023-05-10T16:25:22.057Z,100977.56
2023-05-10T16:27:51.665Z,100922.38
2023-05-10T16:30:23.031Z,100901.75
2023-05-10T16:32:53.445Z,101018.13
2023-05-10T16:35:23.956Z,100973.19
2023-05-10T16:37:53.689Z,101015.91
2023-05-10T16:40:24.883Z,100978.72
2023-05-10T16:43:11.211Z,100866.91
2023-05-10T16:45:40.743Z,100958.53
2023-05-10T16:48:10.342Z,100930.75
2023-05-10T16:50:39.721Z,100928.25
2023-05-10T16:53:09.421Z,100965.66
2023-05-10T16:55:59.043Z,101015.28
2023-05-10T16:58:45.543Z,100923.34
2023-05-10T17:01:14.973Z,100974.94
2023-05-10T17:04:03.024Z,101013.19
2023-05-10T17:06:32.614Z,100913.50
2023-05-10T17:09:01.993Z,100983.28
2023-05-10T17:11:51.324Z,101015.41
2023-05-10T17:14:20.886Z,100995.66
2023-05-10T17:16:53.168Z,100906.22
2023-05-10T17:19:25.555Z,101003.75
2023-05-10T17:21:55.749Z,100902.16
2023-05-10T17:24:25.392Z,100972.66
2023-05-10T17:27:13.336Z,100922.44
2023-05-10T17:29:42.705Z,100963.38
2023-05-10T17:32:12.086Z,101007.00
2023-05-10T17:34:41.552Z,101011.47
2023-05-10T17:37:11.680Z,100882.78
2023-05-10T17:39:41.367Z,100879.31
2023-05-10T17:42:12.905Z,100881.16
2023-05-10T17:44:42.313Z,100971.69
2023-05-10T17:47:28.721Z,100906.63
2023-05-10T17:49:58.161Z,100989.38
2023-05-10T17:52:27.615Z,101000.66
2023-05-10T17:55:14.355Z,100846.75
2023-05-10T17:57:45.275Z,100832.19
2023-05-10T18:00:16.210Z,100922.59
2023-05-10T18:02:45.640Z,100868.69
2023-05-10T18:05:36.811Z,100997.53
2023-05-10T18:08:06.482Z,100983.66
2023-05-10T18:10:35.880Z,100976.69
2023-05-10T18:13:08.553Z,100823.66
2023-05-10T18:15:38.156Z,100957.69
2023-05-10T18:18:07.847Z,100954.25
2023-05-10T18:20:37.478Z,100870.75
2023-05-10T18:23:24.904Z,100929.91
2023-05-10T18:25:54.602Z,100917.81
2023-05-10T18:28:26.314Z,100752.56
2023-05-10T18:30:55.754Z,100852.53
2023-05-10T18:33:25.393Z,100849.94
2023-05-10T18:35:54.973Z,100883.06
2023-05-10T18:38:24.424Z,100830.88
2023-05-10T18:40:53.851Z,100810.91
2023-05-10T18:43:26.538Z,100919.69
2023-05-10T18:45:55.854Z,100917.06
2023-05-10T18:48:25.222Z,100730.13
2023-05-10T18:51:13.059Z,100904.91
2023-05-10T18:54:00.955Z,100934.50
2023-05-10T18:56:30.415Z,100896.22
2023-05-10T18:59:19.616Z,100932.81
2023-05-10T19:02:07.139Z,100938.09
2023-05-10T19:04:36.581Z,100768.41
2023-05-10T19:07:05.925Z,100777.09
2023-05-10T19:09:35.194Z,100850.19
2023-05-10T19:12:23.037Z,100918.94
2023-05-10T19:14:54.362Z,100845.00
2023-05-10T19:17:40.820Z,100893.78
2023-05-10T19:20:10.823Z,100922.56
2023-05-10T19:23:09.026Z,100885.94
2023-05-10T19:25:39.794Z,100901.66
2023-05-10T19:28:26.080Z,100801.56
2023-05-10T19:30:57.028Z,100926.06
2023-05-10T19:33:26.483Z,100769.38
2023-05-10T19:35:56.454Z,100846.81
2023-05-10T19:39:01.355Z,100912.13
2023-05-10T19:41:30.709Z,100849.44
2023-05-10T19:44:18.507Z,100799.00
2023-05-10T19:46:49.440Z,100744.16
2023-05-10T19:49:19.299Z,100776.31
2023-05-10T19:51:48.597Z,100848.56
2023-05-10T19:54:36.267Z,100890.34
2023-05-10T19:57:05.681Z,100746.75
2023-05-10T19:59:35.060Z,100863.41
2023-05-10T20:02:41.338Z,100886.03
2023-05-10T20:05:11.303Z,100678.94
2023-05-10T20:07:58.685Z,100726.78
2023-05-10T20:10:27.965Z,100856.44
2023-05-10T20:13:15.333Z,100888.66
2023-05-10T20:16:01.593Z,100799.84
2023-05-10T20:18:32.534Z,100855.59
2023-05-10T20:21:02.893Z,100691.09
2023-05-10T20:24:07.724Z,100859.06
2023-05-10T20:26:36.941Z,100818.16
2023-05-10T20:29:06.253Z,100875.63
2023-05-10T20:32:10.927Z,100859.94
2023-05-10T20:34:59.536Z,100696.31
2023-05-10T20:37:29.176Z,100805.09
2023-05-10T20:39:58.538Z,100715.44
2023-05-10T20:42:27.853Z,100724.13
2023-05-10T20:45:15.531Z,100770.25
2023-05-10T20:47:44.813Z,100873.00
2023-05-10T20:50:15.804Z,100812.91
2023-05-10T20:52:45.127Z,100798.13
2023-05-10T20:55:14.481Z,100848.63
2023-05-10T20:57:45.656Z,100820.75
2023-05-10T21:00:16.167Z,100738.91
2023-05-10T21:03:01.477Z,100727.59
2023-05-10T21:05:32.732Z,100695.44
2023-05-10T21:08:20.375Z,100857.31
2023-05-10T21:11:08.258Z,100859.06
2023-05-10T21:13:37.579Z,100812.03
2023-05-10T21:16:24.471Z,100808.56
2023-05-10T21:18:53.741Z,100816.38
2023-05-10T21:21:24.700Z,100761.50
2023-05-10T21:23:53.976Z,100819.00
2023-05-10T21:26:23.673Z,100840.78
2023-05-10T21:29:10.955Z,100843.41
2023-05-10T21:31:40.218Z,100755.44
2023-05-10T21:34:09.647Z,100685.81
2023-05-10T21:36:41.020Z,100819.91
2023-05-10T21:39:10.882Z,100738.03
2023-05-10T21:41:40.160Z,100831.19
2023-05-10T21:44:09.412Z,100697.16
2023-05-10T21:46:38.631Z,100807.69
2023-05-10T21:49:08.646Z,100691.94
2023-05-10T21:51:39.595Z,100738.03
2023-05-10T21:54:08.875Z,100765.03
2023-05-10T21:56:38.155Z,100588.34
2023-05-10T21:59:07.917Z,100617.09
2023-05-10T22:01:37.366Z,100745.00
2023-05-10T22:04:06.720Z,100773.75
2023-05-10T22:06:35.965Z,100705.84
2023-05-10T22:09:07.031Z,100701.50
2023-05-10T22:11:36.260Z,100775.47
2023-05-10T22:14:05.632Z,100739.81
2023-05-10T22:16:34.995Z,100651.91
2023-05-10T22:19:04.398Z,100755.47
2023-05-10T22:21:33.777Z,100712.84
2023-05-10T22:24:20.136Z,100754.63
2023-05-10T22:27:09.194Z,100789.44
2023-05-10T22:29:38.371Z,100672.81
2023-05-10T22:32:08.050Z,100633.69
2023-05-10T22:34:37.285Z,100590.16
2023-05-10T22:37:24.676Z,100781.56
2023-05-10T22:39:54.104Z,100799.84
2023-05-10T22:42:24.861Z,100734.59
2023-05-10T22:44:54.275Z,100781.59
2023-05-10T22:47:23.476Z,100740.69
2023-05-10T22:49:52.810Z,100738.06
2023-05-10T22:52:22.015Z,100667.59
2023-05-10T22:55:09.447Z,100750.22
2023-05-10T22:57:40.349Z,100740.66
2023-05-10T23:00:11.426Z,100740.66
2023-05-10T23:02:59.106Z,100756.31
2023-05-10T23:05:46.810Z,100686.72
2023-05-10T23:08:16.353Z,100679.78
2023-05-10T23:11:03.668Z,100681.53
2023-05-10T23:13:34.413Z,100754.53
2023-05-10T23:16:21.959Z,100752.69
2023-05-10T23:19:26.793Z,100622.25
2023-05-10T23:21:56.081Z,100664.81
2023-05-10T23:24:43.544Z,100739.44
2023-05-10T23:27:30.579Z,100672.53
2023-05-10T23:30:01.316Z,100669.84
2023-05-10T23:32:47.543Z,100739.25
2023-05-10T23:35:33.616Z,100710.56
2023-05-10T23:38:02.841Z,100627.00
2023-05-10T23:40:32.054Z,100735.50
2023-05-10T23:43:01.357Z,100752.06
2023-05-10T23:45:32.071Z,100736.38
2023-05-10T23:48:01.406Z,100742.44
2023-05-10T23:50:49.057Z,100744.00
2023-05-10T23:53:18.545Z,100585.09
2023-05-10T23:55:47.890Z,100691.94
2023-05-10T23:58:17.175Z,100685.81
